Flight Track Log - Related Links

Times and Time Zones

All times are in EDT time to prevent confusion due to time zone crossing. See the AAL1326 flight status page for this flight to view local times or setup timezone preferences in your user account.

Time Position Orientation Groundspeed Altitude Reporting Facility
EDT Latitude Longitude Course Direction KTS MPH feet Rate Location/Type
Thu 04:44:00 PM 39.4843 -94.4740 41° Northeast  Level FlightAware Approximate
Thu 04:44:44 PM 39.4228 -94.5953 43° Northeast 246 283 7,400  Level Kansas City Center
Thu 04:45:00 PM 39.5619 -94.3848 45° Northeast  Level FlightAware Approximate
Thu 04:45:46 PM 39.4844 -94.5106 90° East 291 335 9,900  Level Kansas City Center
Thu 04:46:00 PM 39.6356 -94.2901 45° Northeast  Level FlightAware Approximate
Thu 04:46:00 PM 39.5075 -94.4653 50° Northeast  Level FlightAware Approximate
Thu 04:46:48 PM 39.5467 -94.4281 46° Northeast 336 387 11,300  Level Kansas City Center
Thu 04:47:00 PM 39.7074 -94.1930 47° Northeast  Level FlightAware Approximate
Thu 04:47:50 PM 39.6486 -94.3719 23° Northeast 376 433 14,400  Level Kansas City Center
Thu 04:48:00 PM 39.7800 -94.0968 43° Northeast  Level FlightAware Approximate
Thu 04:48:52 PM 39.7417 -94.3625 North 351 404 16,300  Level Kansas City Center
Thu 04:49:00 PM 39.8556 -94.0044 43° Northeast  Level FlightAware Approximate
Thu 04:49:54 PM 39.8494 -94.3453 North 351 404 18,600  Level Kansas City Center
Thu 04:50:56 PM 39.9478 -94.3297 North 370 426 20,900 2,371 Climbing Kansas City Center
Thu 04:51:58 PM 40.0383 -94.2464 35° Northeast 385 443 23,500 2,177 Climbing Kansas City Center
Thu 04:53:00 PM 39.8519 -93.6350 90° East  Level Estimated
Thu 04:53:00 PM 40.0481 -94.1211 84° East 365 420 25,400  Level Kansas City Center
Thu 04:54:02 PM 40.0583 -93.9692 85° East 390 449 26,900 1,645 Climbing Kansas City Center
Thu 04:55:04 PM 40.0664 -93.8236 86° East 400 460 28,800 1,742 Climbing Kansas City Center
Thu 04:56:06 PM 40.0747 -93.6756 86° East 408 470 30,500 1,500 Climbing Kansas City Center
Thu 04:57:08 PM 40.0833 -93.5231 86° East 420 483 31,900 1,210 Climbing Kansas City Center
Thu 04:58:10 PM 40.0939 -93.3697 85° East 427 491 33,000 532 Climbing Kansas City Center
Thu 04:59:12 PM 40.1028 -93.1819 86° East 434 499 33,000  Level Kansas City Center
Thu 05:00:14 PM 40.1111 -93.0339 86° East 430 495 33,000  Level Kansas City Center
Thu 05:01:16 PM 40.1197 -92.8603 86° East 429 494 33,000  Level Kansas City Center
Thu 05:02:18 PM 40.1269 -92.7111 86° East 429 494 33,000  Level Kansas City Center
Thu 05:03:20 PM 40.1536 -92.5367 79° East 447 514 33,000  Level Kansas City Center
Thu 05:04:22 PM 40.2078 -92.3978 63° Northeast 447 514 33,000  Level Kansas City Center
Thu 05:05:24 PM 40.2575 -92.2522 66° East 449 517 33,000  Level Kansas City Center
Thu 05:06:26 PM 40.3094 -92.1075 65° Northeast 448 516 33,000  Level Kansas City Center
Thu 05:07:28 PM 40.3717 -91.9325 65° Northeast 445 512 33,000  Level Kansas City Center
Thu 05:08:30 PM 40.4231 -91.7872 65° Northeast 444 511 33,000  Level Kansas City Center
Thu 05:09:32 PM 40.4733 -91.6392 66° East 446 513 33,000  Level Kansas City Center
Thu 05:10:34 PM 40.5242 -91.4922 65° Northeast 446 513 33,000  Level Kansas City Center
Thu 05:11:32 PM 40.5744 -91.3444 66° East 447 514 33,000  Level Chicago Center
Thu 05:12:34 PM 40.6311 -91.1764 66° East 446 513 33,000 -97 Level Chicago Center
Thu 05:13:36 PM 40.6822 -91.0264 66° East 447 514 32,800 -581 Descending Chicago Center
Thu 05:14:38 PM 40.7319 -90.8797 66° East 440 506 31,800 -968 Descending Chicago Center
Thu 05:15:40 PM 40.7822 -90.7322 66° East 440 506 30,800 -919 Descending Chicago Center
Thu 05:16:42 PM 40.8328 -90.5844 66° East 441 507 29,900 -919 Descending Chicago Center
Thu 05:17:44 PM 40.8822 -90.4333 67° East 443 510 28,900 -968 Descending Chicago Center
Thu 05:18:46 PM 40.9336 -90.2831 66° East 444 511 27,900 -968 Descending Chicago Center
Thu 05:19:48 PM 40.9903 -90.1089 67° East 447 514 26,900 -1,008 Descending Chicago Center
Thu 05:20:51 PM 41.0444 -89.9464 66° East 446 513 25,800 -960 Descending Chicago Center
Thu 05:21:53 PM 41.0933 -89.7939 67° East 444 511 24,900 -871 Descending Chicago Center
Thu 05:22:55 PM 41.1428 -89.6442 66° East 440 506 24,000 -435 Descending Chicago Center
Thu 05:23:57 PM 41.2028 -89.5053 60° Northeast 433 498 24,000 -1,016 Level Chicago Center
Thu 05:24:59 PM 41.2617 -89.3661 61° Northeast 432 497 21,900 -2,129 Descending Chicago Center
Thu 05:26:01 PM 41.3189 -89.2281 61° Northeast 426 490 19,600 -2,081 Descending Chicago Center
Thu 05:27:03 PM 41.3756 -89.0892 61° Northeast 406 467 17,600 -2,081 Descending Chicago Center
Thu 05:28:05 PM 41.4392 -88.9386 61° Northeast 390 449 15,300 -2,081 Descending Chicago Center
Thu 05:29:07 PM 41.4872 -88.8153 62° Northeast 377 434 13,300 -2,081 Descending Chicago Center
Thu 05:30:09 PM 41.5272 -88.6983 65° Northeast 356 410 11,000 -1,113 Descending Chicago Center
Thu 05:31:11 PM 41.5139 -88.5883 99° East 307 353 11,000 48 Level Chicago Center
Thu 05:32:14 PM 41.5411 -88.4853 71° East 307 353 11,100 -480 Climbing Chicago Center
Thu 05:33:16 PM 41.5786 -88.3869 63° Northeast 300 345 10,000 -1,210 Descending Chicago Center
Thu 05:34:18 PM 41.6294 -88.2803 57° Northeast 286 329 8,600 -1,306 Descending Chicago Center
Thu 05:35:20 PM 41.6844 -88.2139 42° Northeast 268 308 7,300 -1,161 Descending Chicago Center
Thu 05:36:22 PM 41.7381 -88.1531 40° Northeast 255 293 6,200 -1,113 Descending Chicago Center
Thu 05:37:24 PM 41.7867 -88.0969 41° Northeast 241 277 5,000 -968 Descending Chicago Center
Thu 05:38:26 PM 41.8344 -88.0403 41° Northeast 233 268 4,200 -774 Descending Chicago Center

Login

Don't have an account? Register now (free) for customized features, flight alerts, and more!